Terminal Aerodrome Forecast
Issued by NWS Sterling, VA

Home | Current Version | Previous Version | Text Only | Print | Product List | Glossary On
Versions: 1 2 3 4 5 6 7 8 9 10 11 12 13 14 15 16 17 18 19 20 21
000
FTUS41 KLWX 101736
TAFDCA
TAF
KDCA 101736Z 1018/1118 32011G19KT P6SM FEW050 SCT120
     FM102300 30008KT P6SM FEW250
     FM110500 VRB03KT P6SM SCT130
     FM111300 15007KT P6SM BKN100=

USA.gov is the U.S. government's official web portal to all federal, state and local government web resources and services.